createdAt,value
2019-02-21T00:02:18.007Z,68.37
2019-02-21T00:04:46.575Z,58.40
2019-02-21T00:07:16.667Z,63.80
2019-02-21T00:09:45.369Z,67.20
2019-02-21T00:12:15.420Z,71.07
2019-02-21T00:14:43.922Z,68.60
2019-02-21T00:17:12.573Z,82.50
2019-02-21T00:19:41.205Z,69.90
2019-02-21T00:22:09.768Z,72.20
2019-02-21T00:24:40.015Z,69.07
2019-02-21T00:27:08.811Z,61.13
2019-02-21T00:29:37.372Z,46.63
2019-02-21T00:32:06.031Z,66.33
2019-02-21T00:34:34.776Z,67.17
2019-02-21T00:37:03.357Z,72.83
2019-02-21T00:39:31.869Z,68.03
2019-02-21T00:42:00.445Z,61.37
2019-02-21T00:44:28.921Z,54.13
2019-02-21T00:46:57.454Z,47.43
2019-02-21T00:49:26.013Z,64.40
2019-02-21T00:51:54.732Z,64.27
2019-02-21T00:54:23.389Z,65.40
2019-02-21T00:56:51.950Z,65.80
2019-02-21T00:59:20.501Z,62.23
2019-02-21T01:01:49.029Z,65.47
2019-02-21T01:04:17.648Z,57.60
2019-02-21T01:06:46.216Z,56.33
2019-02-21T01:09:14.939Z,54.03
2019-02-21T01:11:43.513Z,65.30
2019-02-21T01:14:12.072Z,63.50
2019-02-21T01:16:40.660Z,62.33
2019-02-21T01:19:09.300Z,67.73
2019-02-21T01:21:39.292Z,69.37
2019-02-21T01:24:07.953Z,65.30
2019-02-21T01:26:36.705Z,55.80
2019-02-21T01:29:05.412Z,55.33
2019-02-21T01:31:36.410Z,64.47
2019-02-21T01:34:05.086Z,65.30
2019-02-21T01:36:33.709Z,62.33
2019-02-21T01:39:02.229Z,65.63
2019-02-21T01:41:30.781Z,62.83
2019-02-21T01:43:59.339Z,64.90
2019-02-21T01:46:27.940Z,57.43
2019-02-21T01:48:56.503Z,64.37
2019-02-21T01:51:25.066Z,56.27
2019-02-21T01:53:53.590Z,63.27
2019-02-21T01:56:22.091Z,69.33
2019-02-21T01:58:50.599Z,64.03
2019-02-21T02:01:20.749Z,74.07
2019-02-21T02:03:49.359Z,87.63
2019-02-21T02:06:17.978Z,97.13
2019-02-21T02:08:46.730Z,89.27
2019-02-21T02:11:15.378Z,104.37
2019-02-21T02:13:43.923Z,105.77
2019-02-21T02:16:12.583Z,91.50
2019-02-21T02:18:41.543Z,96.37
2019-02-21T02:21:10.174Z,92.10
2019-02-21T02:23:38.697Z,75.40
2019-02-21T02:26:07.326Z,81.93
2019-02-21T02:28:35.917Z,70.57
2019-02-21T02:31:04.585Z,73.53
2019-02-21T02:33:33.218Z,66.27
2019-02-21T02:36:01.786Z,67.13
2019-02-21T02:38:30.381Z,64.77
2019-02-21T02:41:02.780Z,66.80
2019-02-21T02:43:31.284Z,62.77
2019-02-21T02:45:59.872Z,58.73
2019-02-21T02:48:28.347Z,70.00
2019-02-21T02:50:56.903Z,65.33
2019-02-21T02:53:25.441Z,63.67
2019-02-21T02:55:54.051Z,61.30
2019-02-21T02:58:22.674Z,53.27
2019-02-21T03:00:51.506Z,52.97
2019-02-21T03:03:20.123Z,59.27
2019-02-21T03:05:48.809Z,55.83
2019-02-21T03:08:17.337Z,53.37
2019-02-21T03:10:46.035Z,53.97
2019-02-21T03:13:14.578Z,50.03
2019-02-21T03:15:43.199Z,58.23
2019-02-21T03:18:11.675Z,59.80
2019-02-21T03:20:40.160Z,59.63
2019-02-21T03:23:08.830Z,76.27
2019-02-21T03:25:37.385Z,86.20
2019-02-21T03:28:06.001Z,73.03
2019-02-21T03:30:34.533Z,71.43
2019-02-21T03:33:03.127Z,70.87
2019-02-21T03:35:32.006Z,71.10
2019-02-21T03:38:00.601Z,60.63
2019-02-21T03:40:29.164Z,67.30
2019-02-21T03:42:57.645Z,56.10
2019-02-21T03:45:26.292Z,68.27
2019-02-21T03:47:54.854Z,61.73
2019-02-21T03:50:23.408Z,61.73
2019-02-21T03:52:51.995Z,71.93
2019-02-21T03:55:20.582Z,72.63
2019-02-21T03:57:49.179Z,57.57
2019-02-21T04:00:17.855Z,68.47
2019-02-21T04:02:46.540Z,60.37
2019-02-21T04:05:15.244Z,66.07
2019-02-21T04:07:43.771Z,61.97
2019-02-21T04:10:12.412Z,63.97
2019-02-21T04:12:40.907Z,69.70
2019-02-21T04:15:12.193Z,65.13
2019-02-21T04:17:40.757Z,60.90
2019-02-21T04:20:10.080Z,65.33
2019-02-21T04:22:38.669Z,62.60
2019-02-21T04:25:09.341Z,58.30
2019-02-21T04:27:37.898Z,60.53
2019-02-21T04:30:07.758Z,60.70
2019-02-21T04:32:36.318Z,59.10
2019-02-21T04:35:05.733Z,57.43
2019-02-21T04:37:34.442Z,63.53
2019-02-21T04:40:03.005Z,68.23
2019-02-21T04:42:31.629Z,63.53
2019-02-21T04:45:00.549Z,55.53
2019-02-21T04:47:29.429Z,50.27
2019-02-21T04:49:57.932Z,62.67
2019-02-21T04:52:26.503Z,52.30
2019-02-21T04:54:55.162Z,64.20
2019-02-21T04:57:23.711Z,57.27
2019-02-21T04:59:52.370Z,55.73
2019-02-21T05:02:29.195Z,51.83
2019-02-21T05:04:51.311Z,55.43
2019-02-21T05:07:19.978Z,59.47
2019-02-21T05:09:57.276Z,58.60
2019-02-21T05:12:18.676Z,57.40
2019-02-21T05:14:47.220Z,58.90
2019-02-21T05:17:15.814Z,62.67
2019-02-21T05:19:44.433Z,70.47
2019-02-21T05:22:13.021Z,57.03
2019-02-21T05:24:41.585Z,66.33
2019-02-21T05:27:17.802Z,76.17
2019-02-21T05:29:46.357Z,64.80
2019-02-21T05:32:22.226Z,66.13
2019-02-21T05:34:58.152Z,62.43
2019-02-21T05:37:40.472Z,64.90
2019-02-21T05:40:28.325Z,59.97
2019-02-21T05:43:15.632Z,83.53
2019-02-21T05:45:48.870Z,77.37
2019-02-21T05:48:22.004Z,64.37
2019-02-21T05:50:52.136Z,68.80
2019-02-21T05:53:24.829Z,63.77
2019-02-21T05:55:57.700Z,63.30
2019-02-21T05:58:39.743Z,78.87
2019-02-21T06:01:12.514Z,65.20
2019-02-21T06:03:54.919Z,72.97
2019-02-21T06:06:25.099Z,75.90
2019-02-21T06:09:01.116Z,85.93
2019-02-21T06:11:47.449Z,80.10
2019-02-21T06:14:23.237Z,67.50
2019-02-21T06:17:08.681Z,75.33
2019-02-21T06:19:57.161Z,76.37
2019-02-21T06:22:43.788Z,84.10
2019-02-21T06:25:13.992Z,78.83
2019-02-21T06:27:44.168Z,78.90
2019-02-21T06:30:14.406Z,82.47
2019-02-21T06:32:43.035Z,78.17
2019-02-21T06:35:12.079Z,82.97
2019-02-21T06:37:40.670Z,70.77
2019-02-21T06:40:09.320Z,85.87
2019-02-21T06:42:37.885Z,73.40
2019-02-21T06:45:07.040Z,76.50
2019-02-21T06:47:35.594Z,76.43
2019-02-21T06:50:05.428Z,72.43
2019-02-21T06:52:34.022Z,71.83
2019-02-21T06:55:02.757Z,69.57
2019-02-21T06:57:31.490Z,59.00
2019-02-21T07:00:00.218Z,74.17
2019-02-21T07:02:28.906Z,76.77
2019-02-21T07:04:57.467Z,81.43
2019-02-21T07:07:26.054Z,72.97
2019-02-21T07:09:54.547Z,77.73
2019-02-21T07:12:23.048Z,72.53
2019-02-21T07:14:51.646Z,58.40
2019-02-21T07:17:20.201Z,64.47
2019-02-21T07:19:48.678Z,58.77
2019-02-21T07:22:17.939Z,93.10
2019-02-21T07:24:49.110Z,74.70
2019-02-21T07:27:17.664Z,58.73
2019-02-21T07:29:46.175Z,63.03
2019-02-21T07:32:14.827Z,53.40
2019-02-21T07:34:43.419Z,53.40
2019-02-21T07:37:18.506Z,57.57
2019-02-21T07:39:42.150Z,60.17
2019-02-21T07:42:10.781Z,57.20
2019-02-21T07:44:39.366Z,60.27
2019-02-21T07:47:07.940Z,58.30
2019-02-21T07:49:38.148Z,57.23
2019-02-21T07:52:07.015Z,62.13
2019-02-21T07:54:35.565Z,57.80
2019-02-21T07:57:08.394Z,59.97
2019-02-21T07:59:36.070Z,57.27
2019-02-21T08:02:04.707Z,55.00
2019-02-21T08:04:33.478Z,59.73
2019-02-21T08:07:03.199Z,57.20
2019-02-21T08:09:31.841Z,57.30
2019-02-21T08:12:00.391Z,66.60
2019-02-21T08:14:29.042Z,55.40
2019-02-21T08:16:57.606Z,63.70
2019-02-21T08:19:26.189Z,58.10
2019-02-21T08:21:54.790Z,63.77
2019-02-21T08:24:23.292Z,52.70
2019-02-21T08:26:51.863Z,49.47
2019-02-21T08:29:20.919Z,48.23
2019-02-21T08:31:49.614Z,47.00
2019-02-21T08:34:19.808Z,51.30
2019-02-21T08:36:48.477Z,49.40
2019-02-21T08:39:16.971Z,49.73
2019-02-21T08:41:45.592Z,55.27
2019-02-21T08:44:14.132Z,55.60
2019-02-21T08:46:42.679Z,52.13
2019-02-21T08:49:11.263Z,124.23
2019-02-21T08:51:39.930Z,55.30
2019-02-21T08:54:08.565Z,53.47
2019-02-21T08:56:37.217Z,56.70
2019-02-21T08:59:05.949Z,60.03
2019-02-21T09:01:36.218Z,51.30
2019-02-21T09:04:10.932Z,52.40
2019-02-21T09:06:35.396Z,60.43
2019-02-21T09:09:05.123Z,59.77
2019-02-21T09:11:33.759Z,61.63
2019-02-21T09:14:02.440Z,57.63
2019-02-21T09:16:31.072Z,57.60
2019-02-21T09:18:59.700Z,57.37
2019-02-21T09:21:28.436Z,57.93
2019-02-21T09:23:57.071Z,60.90
2019-02-21T09:26:25.701Z,64.30
2019-02-21T09:28:54.289Z,54.43
2019-02-21T09:31:22.945Z,62.97
2019-02-21T09:33:51.499Z,57.93
2019-02-21T09:36:20.111Z,55.67
2019-02-21T09:38:50.333Z,59.00
2019-02-21T09:41:20.416Z,59.50
2019-02-21T09:43:52.838Z,53.27
2019-02-21T09:46:21.377Z,60.23
2019-02-21T09:48:49.938Z,58.20
2019-02-21T09:51:18.540Z,54.73
2019-02-21T09:53:48.616Z,46.63
2019-02-21T09:56:17.255Z,52.80
2019-02-21T09:58:46.114Z,53.60
2019-02-21T10:01:14.727Z,52.67
2019-02-21T10:03:44.785Z,57.23
2019-02-21T10:06:13.446Z,48.33
2019-02-21T10:08:43.720Z,56.50
2019-02-21T10:11:12.201Z,55.80
2019-02-21T10:13:43.697Z,49.40
2019-02-21T10:16:12.334Z,47.63
2019-02-21T10:18:40.962Z,45.63
2019-02-21T10:21:09.646Z,46.90
2019-02-21T10:23:38.269Z,44.63
2019-02-21T10:26:06.908Z,44.57
2019-02-21T10:28:37.038Z,42.53
2019-02-21T10:31:05.821Z,48.37
2019-02-21T10:33:34.452Z,40.23
2019-02-21T10:36:05.247Z,35.73
2019-02-21T10:38:33.745Z,38.63
2019-02-21T10:41:02.316Z,38.83
2019-02-21T10:43:30.909Z,37.47
2019-02-21T10:45:59.545Z,33.63
2019-02-21T10:48:28.137Z,32.20
2019-02-21T10:50:56.773Z,31.87
2019-02-21T10:53:25.491Z,35.17
2019-02-21T10:55:54.112Z,31.67
2019-02-21T10:58:23.041Z,30.27
2019-02-21T11:00:51.627Z,30.70
2019-02-21T11:03:20.269Z,33.20
2019-02-21T11:05:52.601Z,32.23
2019-02-21T11:08:21.245Z,34.23
2019-02-21T11:10:50.227Z,31.83
2019-02-21T11:13:18.849Z,30.00
2019-02-21T11:15:47.480Z,32.13
2019-02-21T11:18:16.216Z,28.20
2019-02-21T11:20:44.990Z,25.70
2019-02-21T11:23:13.556Z,25.30
2019-02-21T11:25:42.234Z,18.80
2019-02-21T11:28:10.894Z,13.43
2019-02-21T11:30:39.524Z,11.50
2019-02-21T11:33:08.567Z,11.53
2019-02-21T11:35:37.321Z,17.60
2019-02-21T11:38:06.132Z,12.17
2019-02-21T11:40:35.145Z,52.60
2019-02-21T11:43:04.111Z,13.43
2019-02-21T11:45:32.884Z,11.13
2019-02-21T11:48:01.656Z,9.77
2019-02-21T11:50:32.189Z,11.93
2019-02-21T11:53:00.818Z,11.50
2019-02-21T11:55:29.389Z,12.13
2019-02-21T11:57:58.078Z,9.63
2019-02-21T12:00:32.567Z,9.47
2019-02-21T12:03:01.064Z,11.50
2019-02-21T12:05:31.946Z,12.67
2019-02-21T12:08:00.170Z,10.67
2019-02-21T12:10:28.879Z,11.67
2019-02-21T12:12:57.466Z,11.13
2019-02-21T12:15:26.153Z,12.97
2019-02-21T12:17:55.887Z,11.17
2019-02-21T12:20:24.575Z,12.63
2019-02-21T12:22:53.224Z,26.13
2019-02-21T12:25:23.459Z,11.30
2019-02-21T12:27:52.197Z,10.97
2019-02-21T12:30:21.237Z,11.47
2019-02-21T12:32:49.948Z,12.67
2019-02-21T12:35:29.384Z,13.43
2019-02-21T12:37:49.051Z,13.00
2019-02-21T12:40:19.899Z,10.73
2019-02-21T12:42:48.506Z,10.87
2019-02-21T12:45:19.230Z,10.17
2019-02-21T12:47:52.867Z,16.57
2019-02-21T12:50:18.268Z,11.00
2019-02-21T12:52:46.928Z,12.17
2019-02-21T12:55:26.459Z,11.63
2019-02-21T12:57:46.003Z,11.57
2019-02-21T13:00:17.548Z,15.30
2019-02-21T13:02:46.297Z,10.57
2019-02-21T13:05:14.980Z,12.67
2019-02-21T13:07:43.558Z,10.60
2019-02-21T13:10:14.540Z,8.53
2019-02-21T13:12:45.871Z,12.10
2019-02-21T13:15:15.816Z,12.23
2019-02-21T13:17:45.665Z,9.50
2019-02-21T13:20:18.483Z,12.57
2019-02-21T13:22:47.102Z,11.60
2019-02-21T13:25:17.244Z,10.07
2019-02-21T13:27:45.981Z,9.77
2019-02-21T13:30:18.213Z,14.30
2019-02-21T13:32:47.039Z,16.87
2019-02-21T13:35:15.839Z,10.33
2019-02-21T13:37:44.463Z,9.47
2019-02-21T13:40:15.229Z,12.40
2019-02-21T13:42:44.151Z,12.60
2019-02-21T13:45:17.230Z,11.13
2019-02-21T13:47:45.337Z,11.83
2019-02-21T13:50:23.699Z,10.80
2019-02-21T13:52:51.285Z,10.97
2019-02-21T13:55:19.931Z,8.73
2019-02-21T13:57:48.604Z,10.70
2019-02-21T14:00:22.165Z,10.00
2019-02-21T14:02:50.809Z,11.60
2019-02-21T14:05:19.469Z,8.43
2019-02-21T14:07:49.754Z,9.60
2019-02-21T14:10:19.988Z,17.07
2019-02-21T14:12:48.669Z,11.13
2019-02-21T14:15:26.940Z,8.47
2019-02-21T14:17:55.576Z,15.73
2019-02-21T14:20:24.211Z,10.07
2019-02-21T14:22:55.452Z,12.30
2019-02-21T14:25:24.445Z,20.00
2019-02-21T14:27:53.029Z,11.00
2019-02-21T14:30:22.456Z,11.27
2019-02-21T14:32:51.136Z,13.13
2019-02-21T14:35:19.750Z,12.77
2019-02-21T14:37:48.889Z,13.70
2019-02-21T14:40:18.060Z,24.40
2019-02-21T14:42:46.702Z,20.27
2019-02-21T14:45:22.242Z,10.23
2019-02-21T14:47:50.882Z,10.90
2019-02-21T14:50:19.576Z,11.03
2019-02-21T14:52:48.283Z,10.53
2019-02-21T14:55:19.568Z,10.67
2019-02-21T14:57:48.202Z,10.20
2019-02-21T15:00:21.865Z,12.60
2019-02-21T15:02:51.971Z,12.20
2019-02-21T15:05:21.006Z,12.67
2019-02-21T15:07:51.144Z,13.43
2019-02-21T15:10:19.836Z,15.33
2019-02-21T15:12:48.468Z,11.97
2019-02-21T15:15:21.866Z,13.57
2019-02-21T15:17:49.915Z,11.23
2019-02-21T15:20:18.562Z,13.03
2019-02-21T15:22:47.535Z,14.00
2019-02-21T15:25:18.996Z,12.47
2019-02-21T15:27:49.125Z,12.30
2019-02-21T15:30:20.087Z,17.27
2019-02-21T15:32:50.181Z,13.73
2019-02-21T15:35:19.903Z,13.17
2019-02-21T15:37:49.517Z,11.77
2019-02-21T15:40:19.592Z,15.83
2019-02-21T15:42:48.281Z,14.43
2019-02-21T15:45:23.568Z,14.77
2019-02-21T15:47:50.171Z,13.97
2019-02-21T15:50:20.148Z,18.07
2019-02-21T15:52:49.262Z,15.27
2019-02-21T15:55:19.707Z,16.97
2019-02-21T15:57:48.484Z,14.33
2019-02-21T16:00:19.844Z,131.90
2019-02-21T16:02:48.496Z,34.97
2019-02-21T16:05:17.186Z,19.07
2019-02-21T16:07:45.815Z,18.60
2019-02-21T16:10:23.279Z,19.43
2019-02-21T16:12:52.357Z,26.00
2019-02-21T16:15:21.138Z,23.63
2019-02-21T16:17:50.009Z,31.50
2019-02-21T16:20:19.991Z,18.90
2019-02-21T16:22:48.644Z,15.83
2019-02-21T16:25:25.504Z,15.77
2019-02-21T16:27:55.455Z,18.20
2019-02-21T16:30:24.547Z,20.53
2019-02-21T16:32:53.144Z,19.33
2019-02-21T16:35:21.862Z,19.07
2019-02-21T16:37:50.527Z,25.97
2019-02-21T16:40:20.831Z,22.67
2019-02-21T16:42:49.495Z,20.23
2019-02-21T16:45:22.940Z,23.73
2019-02-21T16:47:51.709Z,18.30
2019-02-21T16:50:29.377Z,123.13
2019-02-21T16:52:50.704Z,36.30
2019-02-21T16:55:20.797Z,21.77
2019-02-21T16:57:49.422Z,19.77
2019-02-21T17:00:19.587Z,25.10
2019-02-21T17:02:48.322Z,25.63
2019-02-21T17:05:17.042Z,40.13
2019-02-21T17:07:45.760Z,32.83
2019-02-21T17:10:16.500Z,74.90
2019-02-21T17:12:45.241Z,81.70
2019-02-21T17:15:15.177Z,113.47
2019-02-21T17:17:43.883Z,92.47
2019-02-21T17:20:15.344Z,71.40
2019-02-21T17:22:44.672Z,56.17
2019-02-21T17:25:15.185Z,55.37
2019-02-21T17:27:45.108Z,49.27
2019-02-21T17:30:16.274Z,49.90
2019-02-21T17:32:44.955Z,58.27
2019-02-21T17:35:13.893Z,52.13
2019-02-21T17:37:42.527Z,57.83
2019-02-21T17:40:19.519Z,53.53
2019-02-21T17:42:48.221Z,54.73
2019-02-21T17:45:16.849Z,47.47
2019-02-21T17:47:45.443Z,44.67
2019-02-21T17:50:18.658Z,53.53
2019-02-21T17:52:47.290Z,51.37
2019-02-21T17:55:16.960Z,58.27
2019-02-21T17:57:45.728Z,38.37
2019-02-21T18:00:26.600Z,33.70
2019-02-21T18:02:58.051Z,37.50
2019-02-21T18:05:26.689Z,35.00
2019-02-21T18:07:55.357Z,31.10
2019-02-21T18:10:24.002Z,36.73
2019-02-21T18:12:52.627Z,39.07
2019-02-21T18:15:21.322Z,56.23
2019-02-21T18:17:49.970Z,75.93
2019-02-21T18:20:18.609Z,78.13
2019-02-21T18:22:49.337Z,58.80
2019-02-21T18:25:35.931Z,44.93
2019-02-21T18:28:04.764Z,45.77
2019-02-21T18:30:33.408Z,54.97
2019-02-21T18:33:03.680Z,100.03
2019-02-21T18:35:32.340Z,81.20
2019-02-21T18:38:01.048Z,67.53
2019-02-21T18:40:30.020Z,50.93
2019-02-21T18:42:58.686Z,47.13
2019-02-21T18:45:29.178Z,42.00
2019-02-21T18:47:57.845Z,44.73
2019-02-21T18:50:37.376Z,54.97
2019-02-21T18:52:57.008Z,46.77
2019-02-21T18:55:25.632Z,75.13
2019-02-21T18:57:54.312Z,52.43
2019-02-21T19:00:25.796Z,46.87
2019-02-21T19:02:54.447Z,50.30
2019-02-21T19:05:23.130Z,51.00
2019-02-21T19:08:00.891Z,48.57
2019-02-21T19:10:22.894Z,52.73
2019-02-21T19:12:51.683Z,49.97
2019-02-21T19:15:21.313Z,49.23
2019-02-21T19:17:49.949Z,50.00
2019-02-21T19:20:22.489Z,55.00
2019-02-21T19:22:51.392Z,49.93
2019-02-21T19:25:20.199Z,55.00
2019-02-21T19:27:49.196Z,60.60
2019-02-21T19:30:25.641Z,75.70
2019-02-21T19:32:54.366Z,69.30
2019-02-21T19:35:23.120Z,80.03
2019-02-21T19:37:51.775Z,78.37
2019-02-21T19:40:20.715Z,100.00
2019-02-21T19:42:49.474Z,84.57
2019-02-21T19:45:18.197Z,76.03
2019-02-21T19:47:47.092Z,80.07
2019-02-21T19:50:16.045Z,80.27
2019-02-21T19:52:44.694Z,82.03
2019-02-21T19:55:14.489Z,71.23
2019-02-21T19:57:43.293Z,73.63
2019-02-21T20:00:15.529Z,70.63
2019-02-21T20:02:44.223Z,78.70
2019-02-21T20:05:13.158Z,77.73
2019-02-21T20:07:41.898Z,85.97
2019-02-21T20:10:10.922Z,88.57
2019-02-21T20:12:39.596Z,91.57
2019-02-21T20:15:10.465Z,179.77
2019-02-21T20:17:39.223Z,227.40
2019-02-21T20:20:22.957Z,168.77
2019-02-21T20:22:53.270Z,174.63
2019-02-21T20:25:21.951Z,169.00
2019-02-21T20:27:50.589Z,195.30
2019-02-21T20:30:20.299Z,176.30
2019-02-21T20:32:49.312Z,176.47
2019-02-21T20:35:18.112Z,167.43
2019-02-21T20:37:47.188Z,161.93
2019-02-21T20:40:15.939Z,148.03
2019-02-21T20:42:44.675Z,126.43
2019-02-21T20:45:14.727Z,131.13
2019-02-21T20:47:43.444Z,124.53
2019-02-21T20:50:12.976Z,135.63
2019-02-21T20:52:42.075Z,143.90
2019-02-21T20:55:11.672Z,137.87
2019-02-21T20:57:40.569Z,137.60
2019-02-21T21:00:17.856Z,126.47
2019-02-21T21:02:47.599Z,121.20
2019-02-21T21:05:16.870Z,135.60
2019-02-21T21:07:45.603Z,126.53
2019-02-21T21:10:16.048Z,135.67
2019-02-21T21:12:44.857Z,134.37
2019-02-21T21:15:14.843Z,133.07
2019-02-21T21:17:43.747Z,145.13
2019-02-21T21:20:17.452Z,132.83
2019-02-21T21:22:46.787Z,148.20
2019-02-21T21:25:17.202Z,152.60
2019-02-21T21:27:45.964Z,140.63
2019-02-21T21:30:16.664Z,128.70
2019-02-21T21:32:45.460Z,144.67
2019-02-21T21:35:14.595Z,148.10
2019-02-21T21:37:43.367Z,150.00
2019-02-21T21:40:14.905Z,129.73
2019-02-21T21:42:43.951Z,132.77
2019-02-21T21:45:18.102Z,127.27
2019-02-21T21:47:48.177Z,138.60
2019-02-21T21:50:18.836Z,128.33
2019-02-21T21:52:47.529Z,128.17
2019-02-21T21:55:16.258Z,131.13
2019-02-21T21:57:45.447Z,118.80
2019-02-21T22:00:18.131Z,108.83
2019-02-21T22:02:47.091Z,98.97
2019-02-21T22:05:15.928Z,109.57
2019-02-21T22:07:44.784Z,108.00
2019-02-21T22:10:14.379Z,107.90
2019-02-21T22:12:43.992Z,112.40
2019-02-21T22:15:20.445Z,105.43
2019-02-21T22:17:49.120Z,111.30
2019-02-21T22:20:17.842Z,119.47
2019-02-21T22:22:46.614Z,112.30
2019-02-21T22:25:15.462Z,111.47
2019-02-21T22:27:44.138Z,101.77
2019-02-21T22:30:19.888Z,102.53
2019-02-21T22:32:49.005Z,86.20
2019-02-21T22:35:17.764Z,94.00
2019-02-21T22:37:46.398Z,77.80
2019-02-21T22:40:17.487Z,92.50
2019-02-21T22:42:46.288Z,84.43
2019-02-21T22:45:15.163Z,92.10
2019-02-21T22:47:43.876Z,78.07
2019-02-21T22:50:15.284Z,83.20
2019-02-21T22:52:44.077Z,82.17
2019-02-21T22:55:12.692Z,91.60
2019-02-21T22:57:41.343Z,81.80
2019-02-21T23:00:22.318Z,78.60
2019-02-21T23:02:50.978Z,85.80
2019-02-21T23:05:44.759Z,70.10
2019-02-21T23:08:19.145Z,80.20
2019-02-21T23:10:47.838Z,60.00
2019-02-21T23:13:16.785Z,75.83
2019-02-21T23:15:47.060Z,67.53
2019-02-21T23:18:17.319Z,65.77
2019-02-21T23:20:45.995Z,60.00
2019-02-21T23:23:14.639Z,62.57
2019-02-21T23:25:43.282Z,63.27
2019-02-21T23:28:12.034Z,65.30
2019-02-21T23:30:40.725Z,61.47
2019-02-21T23:33:09.425Z,58.47
2019-02-21T23:35:38.118Z,63.10
2019-02-21T23:38:07.112Z,59.53
2019-02-21T23:40:37.049Z,62.53
2019-02-21T23:43:05.889Z,64.43
2019-02-21T23:45:34.685Z,64.87
2019-02-21T23:48:03.404Z,65.13
2019-02-21T23:50:32.081Z,65.33
2019-02-21T23:53:00.655Z,71.07
2019-02-21T23:55:29.204Z,70.33
2019-02-21T23:57:57.863Z,71.67
